createdAt,value
2022-12-20T00:01:34.505Z,23.83
2022-12-20T00:04:07.512Z,22.58
2022-12-20T00:06:36.015Z,26.08
2022-12-20T00:09:06.234Z,24.52
2022-12-20T00:11:33.042Z,22.02
2022-12-20T00:14:07.200Z,20.23
2022-12-20T00:16:36.545Z,21.98
2022-12-20T00:19:09.636Z,22.48
2022-12-20T00:21:37.081Z,20.42
2022-12-20T00:24:07.108Z,24.05
2022-12-20T00:26:35.090Z,24.73
2022-12-20T00:31:43.034Z,21.42
2022-12-20T00:34:10.004Z,22.05
2022-12-20T00:36:42.393Z,22.10
2022-12-20T00:39:09.940Z,23.55
2022-12-20T00:44:41.540Z,20.83
2022-12-20T00:47:08.085Z,22.75
2022-12-20T00:49:34.613Z,19.08
2022-12-20T00:54:33.017Z,22.80
2022-12-20T00:57:03.968Z,23.23
2022-12-20T00:59:30.871Z,22.85
2022-12-20T01:01:57.984Z,20.67
2022-12-20T01:04:25.893Z,19.52
2022-12-20T01:06:52.409Z,19.02
2022-12-20T01:09:22.846Z,23.02
2022-12-20T01:11:49.808Z,26.38
2022-12-20T01:14:16.543Z,26.30
2022-12-20T01:16:44.371Z,26.55
2022-12-20T01:19:14.933Z,23.25
2022-12-20T01:21:47.802Z,25.65
2022-12-20T01:24:15.252Z,24.70
2022-12-20T01:26:45.569Z,27.98
2022-12-20T01:29:12.128Z,27.73
2022-12-20T01:31:41.731Z,28.05
2022-12-20T01:34:08.409Z,26.98
2022-12-20T01:36:35.996Z,25.38
2022-12-20T01:39:13.409Z,27.52
2022-12-20T01:41:42.007Z,25.55
2022-12-20T01:44:17.463Z,25.55
2022-12-20T01:46:44.684Z,26.33
2022-12-20T01:49:30.047Z,27.05
2022-12-20T01:51:56.639Z,23.77
2022-12-20T01:54:38.755Z,22.48
2022-12-20T01:57:11.783Z,20.83
2022-12-20T01:59:42.149Z,22.85
2022-12-20T02:05:00.009Z,25.50
2022-12-20T02:07:29.594Z,26.27
2022-12-20T02:09:57.569Z,25.55
2022-12-20T02:12:29.330Z,26.30
2022-12-20T02:15:01.821Z,26.98
2022-12-20T02:17:29.057Z,26.50
2022-12-20T02:20:27.807Z,26.10
2022-12-20T02:23:12.915Z,24.80
2022-12-20T02:25:58.006Z,25.58
2022-12-20T02:28:43.069Z,25.25
2022-12-20T02:31:12.099Z,25.55
2022-12-20T02:33:39.731Z,24.45
2022-12-20T02:36:06.467Z,25.00
2022-12-20T02:38:34.031Z,24.20
2022-12-20T02:41:12.948Z,22.70
2022-12-20T02:43:41.644Z,23.73
2022-12-20T02:46:08.983Z,24.55
2022-12-20T02:48:37.379Z,25.42
2022-12-20T02:51:10.707Z,25.15
2022-12-20T02:53:38.004Z,24.10
2022-12-20T02:56:10.329Z,25.80
2022-12-20T02:58:58.745Z,23.25
2022-12-20T03:01:29.834Z,22.45
2022-12-20T03:03:57.826Z,24.27
2022-12-20T03:06:27.925Z,23.23
2022-12-20T03:08:54.513Z,25.20
2022-12-20T03:11:21.034Z,25.17
2022-12-20T03:13:47.504Z,23.33
2022-12-20T03:16:14.135Z,25.35
2022-12-20T03:18:44.228Z,26.23
2022-12-20T03:21:10.803Z,25.13
2022-12-20T03:23:40.216Z,25.10
2022-12-20T03:26:06.744Z,24.90
2022-12-20T03:28:33.283Z,24.67
2022-12-20T03:30:59.874Z,25.83
2022-12-20T03:33:30.554Z,24.65
2022-12-20T03:35:57.045Z,24.45
2022-12-20T03:38:25.941Z,25.02
2022-12-20T03:40:52.476Z,25.75
2022-12-20T03:43:19.081Z,24.70
2022-12-20T03:45:45.626Z,25.45
2022-12-20T03:48:12.158Z,25.92
2022-12-20T03:50:38.921Z,24.85
2022-12-20T03:53:08.891Z,24.90
2022-12-20T03:55:35.433Z,25.48
2022-12-20T03:58:01.959Z,26.75
2022-12-20T04:00:28.444Z,27.20
2022-12-20T04:02:55.176Z,27.42
2022-12-20T04:05:21.791Z,27.00
2022-12-20T04:07:49.920Z,25.77
2022-12-20T04:10:16.541Z,26.80
2022-12-20T04:12:45.511Z,25.73
2022-12-20T04:15:11.945Z,23.13
2022-12-20T04:17:38.448Z,24.13
2022-12-20T04:20:06.062Z,27.25
2022-12-20T04:22:34.915Z,27.63
2022-12-20T04:25:01.409Z,26.50
2022-12-20T04:27:33.142Z,29.00
2022-12-20T04:29:59.636Z,25.55
2022-12-20T04:32:27.971Z,26.90
2022-12-20T04:34:54.493Z,28.65
2022-12-20T04:37:21.027Z,29.98
2022-12-20T04:39:47.466Z,29.70
2022-12-20T04:42:13.964Z,29.83
2022-12-20T04:44:40.409Z,29.95
2022-12-20T04:47:06.899Z,27.80
2022-12-20T04:49:36.520Z,27.98
2022-12-20T04:52:03.101Z,27.55
2022-12-20T04:54:29.687Z,28.92
2022-12-20T04:56:56.177Z,29.95
2022-12-20T04:59:23.983Z,29.58
2022-12-20T05:01:50.612Z,29.05
2022-12-20T05:04:17.216Z,28.50
2022-12-20T05:06:43.775Z,30.45
2022-12-20T05:09:11.059Z,29.90
2022-12-20T05:11:37.507Z,29.75
2022-12-20T05:14:04.001Z,29.25
2022-12-20T05:16:30.511Z,30.33
2022-12-20T05:18:57.076Z,31.00
2022-12-20T05:21:23.533Z,28.08
2022-12-20T05:23:51.051Z,29.65
2022-12-20T05:26:17.485Z,31.40
2022-12-20T05:28:44.125Z,30.00
2022-12-20T05:31:11.503Z,29.35
2022-12-20T05:33:37.966Z,28.58
2022-12-20T05:36:04.574Z,29.63
2022-12-20T05:38:31.152Z,28.83
2022-12-20T05:40:57.772Z,32.13
2022-12-20T05:43:24.305Z,32.20
2022-12-20T05:45:54.992Z,33.00
2022-12-20T05:48:21.665Z,32.55
2022-12-20T05:50:51.501Z,33.65
2022-12-20T05:53:18.028Z,30.25
2022-12-20T05:55:51.427Z,29.95
2022-12-20T05:58:18.371Z,34.03
2022-12-20T06:00:45.126Z,31.08
2022-12-20T06:03:13.182Z,32.20
2022-12-20T06:05:42.107Z,33.42
2022-12-20T06:08:08.634Z,32.03
2022-12-20T06:10:35.123Z,32.92
2022-12-20T06:13:02.087Z,31.88
2022-12-20T06:15:29.118Z,34.08
2022-12-20T06:17:55.945Z,34.13
2022-12-20T06:20:23.837Z,32.08
2022-12-20T06:22:50.379Z,32.03
2022-12-20T06:25:17.153Z,32.05
2022-12-20T06:27:45.073Z,33.53
2022-12-20T06:30:11.777Z,30.15
2022-12-20T06:32:39.362Z,32.50
2022-12-20T06:35:06.150Z,34.55
2022-12-20T06:37:32.644Z,32.80
2022-12-20T06:40:01.731Z,33.03
2022-12-20T06:42:32.059Z,30.23
2022-12-20T06:44:58.559Z,31.77
2022-12-20T06:47:29.327Z,31.48
2022-12-20T06:50:02.218Z,31.45
2022-12-20T06:52:28.682Z,30.38
2022-12-20T06:54:57.100Z,32.17
2022-12-20T06:57:23.606Z,30.65
2022-12-20T06:59:50.066Z,31.33
2022-12-20T07:02:17.055Z,32.40
2022-12-20T07:04:43.681Z,32.42
2022-12-20T07:07:11.747Z,33.55
2022-12-20T07:09:41.502Z,31.60
2022-12-20T07:12:08.553Z,31.98
2022-12-20T07:14:35.072Z,33.20
2022-12-20T07:17:03.244Z,31.75
2022-12-20T07:19:29.748Z,30.13
2022-12-20T07:21:56.429Z,31.88
2022-12-20T07:24:22.941Z,33.67
2022-12-20T07:26:50.080Z,32.22
2022-12-20T07:29:16.618Z,33.10
2022-12-20T07:31:43.160Z,32.03
2022-12-20T07:34:17.438Z,32.55
2022-12-20T07:36:43.914Z,31.40
2022-12-20T07:39:10.754Z,32.15
2022-12-20T07:41:39.967Z,32.95
2022-12-20T07:44:06.712Z,30.80
2022-12-20T07:46:33.420Z,32.92
2022-12-20T07:48:59.970Z,31.77
2022-12-20T07:51:35.508Z,32.65
2022-12-20T07:54:05.776Z,33.60
2022-12-20T07:56:40.936Z,34.28
2022-12-20T07:59:07.889Z,31.42
2022-12-20T08:01:34.457Z,31.42
2022-12-20T08:04:04.090Z,30.67
2022-12-20T08:06:30.706Z,30.42
2022-12-20T08:09:00.175Z,30.33
2022-12-20T08:11:27.984Z,29.15
2022-12-20T08:13:57.989Z,30.73
2022-12-20T08:16:25.355Z,29.30
2022-12-20T08:18:51.955Z,34.15
2022-12-20T08:21:18.431Z,31.50
2022-12-20T08:23:45.163Z,32.50
2022-12-20T08:26:12.080Z,31.05
2022-12-20T08:28:38.558Z,30.50
2022-12-20T08:31:08.997Z,30.90
2022-12-20T08:33:36.430Z,28.83
2022-12-20T08:36:04.989Z,31.73
2022-12-20T08:38:33.208Z,30.10
2022-12-20T08:41:07.450Z,30.90
2022-12-20T08:43:34.203Z,31.63
2022-12-20T08:46:00.915Z,33.40
2022-12-20T08:48:28.163Z,32.63
2022-12-20T08:50:55.578Z,35.08
2022-12-20T08:55:53.820Z,31.70
2022-12-20T08:58:21.392Z,33.22
2022-12-20T09:00:47.834Z,33.28
2022-12-20T09:03:14.583Z,35.47
2022-12-20T09:05:45.411Z,35.22
2022-12-20T09:08:15.220Z,35.58
2022-12-20T09:10:41.768Z,35.97
2022-12-20T09:13:09.229Z,35.42
2022-12-20T09:15:35.891Z,37.42
2022-12-20T09:18:02.393Z,36.42
2022-12-20T09:20:29.346Z,37.50
2022-12-20T09:22:55.976Z,37.45
2022-12-20T09:25:22.554Z,39.30
2022-12-20T09:27:49.080Z,37.55
2022-12-20T09:30:16.772Z,39.63
2022-12-20T09:32:43.310Z,39.85
2022-12-20T09:35:10.005Z,37.38
2022-12-20T09:37:36.466Z,39.70
2022-12-20T09:40:03.100Z,37.90
2022-12-20T09:42:30.231Z,36.70
2022-12-20T09:45:05.863Z,38.22
2022-12-20T09:47:34.489Z,38.22
2022-12-20T09:50:01.157Z,39.25
2022-12-20T09:52:46.279Z,37.58
2022-12-20T09:55:21.605Z,35.75
2022-12-20T09:57:53.953Z,38.83
2022-12-20T10:00:21.317Z,38.17
2022-12-20T10:03:02.460Z,38.50
2022-12-20T10:05:41.679Z,37.58
2022-12-20T10:08:34.494Z,37.70
2022-12-20T10:11:22.239Z,38.90
2022-12-20T10:13:54.964Z,37.67
2022-12-20T10:16:21.562Z,38.50
2022-12-20T10:18:51.248Z,40.92
2022-12-20T10:21:31.542Z,39.30
2022-12-20T10:24:00.564Z,37.53
2022-12-20T10:26:27.805Z,39.42
2022-12-20T10:28:54.784Z,38.42
2022-12-20T10:31:21.615Z,41.00
2022-12-20T10:33:51.180Z,40.25
2022-12-20T10:36:25.378Z,38.08
2022-12-20T10:38:53.376Z,36.17
2022-12-20T10:41:26.095Z,40.63
2022-12-20T10:43:55.662Z,40.17
2022-12-20T10:46:22.328Z,36.13
2022-12-20T10:48:49.220Z,40.63
2022-12-20T10:51:17.374Z,41.60
2022-12-20T10:53:56.327Z,40.05
2022-12-20T10:56:27.210Z,41.60
2022-12-20T10:59:22.764Z,42.03
2022-12-20T11:01:52.685Z,38.90
2022-12-20T11:04:28.575Z,40.95
2022-12-20T11:06:55.806Z,41.28
2022-12-20T11:09:26.654Z,42.33
2022-12-20T11:11:59.550Z,41.35
2022-12-20T11:14:26.473Z,44.42
2022-12-20T11:16:53.803Z,40.65
2022-12-20T11:19:29.543Z,41.58
2022-12-20T11:21:58.732Z,41.20
2022-12-20T11:24:45.339Z,41.97
2022-12-20T11:27:20.909Z,41.88
2022-12-20T11:29:48.335Z,43.05
2022-12-20T11:32:20.696Z,39.30
2022-12-20T11:35:06.075Z,40.85
2022-12-20T11:38:02.615Z,40.65
2022-12-20T11:40:46.475Z,39.03
2022-12-20T11:43:17.342Z,39.42
2022-12-20T11:45:46.939Z,38.35
2022-12-20T11:48:19.237Z,39.08
2022-12-20T11:51:08.626Z,39.60
2022-12-20T11:53:54.618Z,38.58
2022-12-20T11:56:23.888Z,39.47
2022-12-20T11:58:53.682Z,42.75
2022-12-20T12:01:24.557Z,39.95
2022-12-20T12:04:00.593Z,39.97
2022-12-20T12:06:50.115Z,36.88
2022-12-20T12:09:35.154Z,40.17
2022-12-20T12:12:09.785Z,42.72
2022-12-20T12:14:49.306Z,41.17
2022-12-20T12:17:24.459Z,42.22
2022-12-20T12:19:54.459Z,43.13
2022-12-20T12:22:35.196Z,42.25
2022-12-20T12:25:04.275Z,42.65
2022-12-20T12:27:30.981Z,41.92
2022-12-20T12:29:58.728Z,40.20
2022-12-20T12:32:31.323Z,40.75
2022-12-20T12:35:11.229Z,41.05
2022-12-20T12:37:38.039Z,40.30
2022-12-20T12:40:07.558Z,40.65
2022-12-20T12:42:59.100Z,41.35
2022-12-20T12:45:30.854Z,39.88
2022-12-20T12:48:16.376Z,39.83
2022-12-20T12:50:47.405Z,39.58
2022-12-20T12:53:18.944Z,39.17
2022-12-20T12:55:46.734Z,40.10
2022-12-20T12:58:33.584Z,42.15
2022-12-20T13:01:10.402Z,38.90
2022-12-20T13:03:44.881Z,41.95
2022-12-20T13:06:24.422Z,38.58
2022-12-20T13:09:00.158Z,39.20
2022-12-20T13:11:34.959Z,39.95
2022-12-20T13:14:23.626Z,39.75
2022-12-20T13:19:38.309Z,38.90
2022-12-20T13:22:16.943Z,37.97
2022-12-20T13:24:46.390Z,36.47
2022-12-20T13:27:28.619Z,36.75
2022-12-20T13:32:59.587Z,37.58
2022-12-20T13:35:26.183Z,40.75
2022-12-20T13:37:55.618Z,42.05
2022-12-20T13:40:40.527Z,41.85
2022-12-20T13:45:34.374Z,41.63
2022-12-20T13:48:11.394Z,41.83
2022-12-20T13:50:48.338Z,43.00
2022-12-20T13:53:19.156Z,43.50
2022-12-20T13:55:46.144Z,40.63
2022-12-20T13:58:20.470Z,41.60
2022-12-20T14:00:47.558Z,41.80
2022-12-20T14:03:36.851Z,42.10
2022-12-20T14:06:05.070Z,37.28
2022-12-20T14:08:33.414Z,40.92
2022-12-20T14:11:09.045Z,42.70
2022-12-20T14:13:35.956Z,43.50
2022-12-20T14:16:14.946Z,42.78
2022-12-20T14:18:41.582Z,46.05
2022-12-20T14:21:09.166Z,43.92
2022-12-20T14:23:35.669Z,43.88
2022-12-20T14:26:03.508Z,46.28
2022-12-20T14:28:29.935Z,46.35
2022-12-20T14:31:07.342Z,41.88
2022-12-20T14:33:38.404Z,43.72
2022-12-20T14:36:32.502Z,45.42
2022-12-20T14:39:21.509Z,43.58
2022-12-20T14:41:54.844Z,43.17
2022-12-20T14:44:26.702Z,43.90
2022-12-20T14:46:54.693Z,44.25
2022-12-20T14:49:21.263Z,46.20
2022-12-20T14:52:05.992Z,45.20
2022-12-20T14:55:06.426Z,45.58
2022-12-20T14:57:23.322Z,45.72
2022-12-20T15:00:08.650Z,43.17
2022-12-20T15:02:36.983Z,43.25
2022-12-20T15:05:30.446Z,41.60
2022-12-20T15:08:16.803Z,44.83
2022-12-20T15:10:47.279Z,45.42
2022-12-20T15:13:17.620Z,44.45
2022-12-20T15:15:47.207Z,45.15
2022-12-20T15:18:14.948Z,45.58
2022-12-20T15:20:42.134Z,42.13
2022-12-20T15:23:12.821Z,42.28
2022-12-20T15:25:43.170Z,41.83
2022-12-20T15:28:14.427Z,42.42
2022-12-20T15:30:41.090Z,46.20
2022-12-20T15:33:09.035Z,47.78
2022-12-20T15:35:35.962Z,46.70
2022-12-20T15:40:34.559Z,45.10
2022-12-20T15:43:02.764Z,44.97
2022-12-20T15:45:29.295Z,46.30
2022-12-20T15:47:58.804Z,49.50
2022-12-20T15:50:25.376Z,45.67
2022-12-20T15:52:51.976Z,46.65
2022-12-20T15:55:18.511Z,44.58
2022-12-20T15:57:52.726Z,45.55
2022-12-20T16:00:23.847Z,47.10
2022-12-20T16:02:52.510Z,44.75
2022-12-20T16:05:19.177Z,45.97
2022-12-20T16:07:46.394Z,47.10
2022-12-20T16:10:14.279Z,49.63
2022-12-20T16:12:44.355Z,45.58
2022-12-20T16:15:21.852Z,45.63
2022-12-20T16:17:49.452Z,44.28
2022-12-20T16:20:19.061Z,45.72
2022-12-20T16:22:51.683Z,48.33
2022-12-20T16:25:26.503Z,43.85
2022-12-20T16:27:53.284Z,46.20
2022-12-20T16:30:32.635Z,44.60
2022-12-20T16:32:59.216Z,45.92
2022-12-20T16:35:33.289Z,42.30
2022-12-20T16:38:13.199Z,42.00
2022-12-20T16:40:45.758Z,41.92
2022-12-20T16:43:21.634Z,42.05
2022-12-20T16:45:48.197Z,40.30
2022-12-20T16:48:16.276Z,41.85
2022-12-20T16:50:42.996Z,42.85
2022-12-20T16:53:12.479Z,42.92
2022-12-20T16:55:40.072Z,43.38
2022-12-20T16:58:09.450Z,39.90
2022-12-20T17:00:47.293Z,40.35
2022-12-20T17:03:13.920Z,41.15
2022-12-20T17:05:41.507Z,43.75
2022-12-20T17:10:48.410Z,46.58
2022-12-20T17:13:15.032Z,44.50
2022-12-20T17:15:41.664Z,47.83
2022-12-20T17:18:11.647Z,47.53
2022-12-20T17:20:38.196Z,49.42
2022-12-20T17:25:53.759Z,51.17
2022-12-20T17:28:25.059Z,48.83
2022-12-20T17:30:52.620Z,49.95
2022-12-20T17:33:20.342Z,50.47
2022-12-20T17:35:47.665Z,52.15
2022-12-20T17:38:14.587Z,50.97
2022-12-20T17:40:44.654Z,50.55
2022-12-20T17:43:12.473Z,49.50
2022-12-20T17:45:39.071Z,50.72
2022-12-20T17:48:07.098Z,49.08
2022-12-20T17:50:34.205Z,48.92
2022-12-20T17:53:00.676Z,45.08
2022-12-20T17:55:27.975Z,47.63
2022-12-20T17:57:55.631Z,45.17
2022-12-20T18:00:22.165Z,51.72
2022-12-20T18:02:48.773Z,52.50
2022-12-20T18:05:15.437Z,54.80
2022-12-20T18:07:42.254Z,56.85
2022-12-20T18:10:10.605Z,47.05
2022-12-20T18:12:38.502Z,51.65
2022-12-20T18:15:06.233Z,53.20
